COG1DE FZUA-FZWA
Flight info
| Callsign | COG1DE |
|---|---|
| Flight time | 0h 20m |
| Altitude | 13000 |
| Route | TERAN DCT MBY |
| Aircraft | A320/M-SDE3FGHIRWY/LB1 |
Departure
| Time | 2026-04-28 07:11 |
|---|---|
| Airport | Kananga Airport (FZUA) |
Arrival
| Time | 2026-04-28 07:32 |
|---|---|
| Airport | Mbuji Mayi Airport (FZWA) |
| Time | Latitude | Longitude | Altitude | Speed | Heading |
|---|---|---|---|---|---|
| 2026-04-28 06:49 | -5.90095 | 22.47751 | 2073 ft | 0 kts | 17° |
| 2026-04-28 07:05 | -5.90110 | 22.47745 | 2075 ft | 4 kts | 40° |
| 2026-04-28 07:06 | -5.90120 | 22.47725 | 2072 ft | 4 kts | 103° |
| 2026-04-28 07:06 | -5.90119 | 22.47719 | 2072 ft | 0 kts | 107° |
| 2026-04-28 07:08 | -5.90119 | 22.47721 | 2073 ft | 2 kts | 107° |
| 2026-04-28 07:08 | -5.90128 | 22.47750 | 2073 ft | 7 kts | 107° |
| 2026-04-28 07:08 | -5.90167 | 22.47784 | 2073 ft | 10 kts | 200° |
| 2026-04-28 07:09 | -5.90198 | 22.47777 | 2073 ft | 0 kts | 196° |
| 2026-04-28 07:10 | -5.90212 | 22.47773 | 2073 ft | 6 kts | 196° |
| 2026-04-28 07:10 | -5.90264 | 22.47738 | 2072 ft | 12 kts | 253° |
| 2026-04-28 07:10 | -5.90258 | 22.47710 | 2072 ft | 0 kts | 289° |
| 2026-04-28 07:10 | -5.90252 | 22.47691 | 2072 ft | 15 kts | 289° |
| 2026-04-28 07:11 | -5.90130 | 22.47308 | 2072 ft | 100 kts | 288° |
| 2026-04-28 07:11 | -5.89843 | 22.46403 | 2083 ft | 168 kts | 288° |
| 2026-04-28 07:11 | -5.89469 | 22.45239 | 2704 ft | 179 kts | 289° |
| 2026-04-28 07:11 | -5.89057 | 22.44014 | 3505 ft | 189 kts | 290° |
| 2026-04-28 07:12 | -5.88447 | 22.42797 | 3953 ft | 207 kts | 315° |
| 2026-04-28 07:12 | -5.87122 | 22.42129 | 4176 ft | 228 kts | 358° |
| 2026-04-28 07:12 | -5.85558 | 22.42525 | 4484 ft | 247 kts | 36° |
| 2026-04-28 07:12 | -5.84484 | 22.43915 | 4889 ft | 264 kts | 73° |
| 2026-04-28 07:13 | -5.84441 | 22.45756 | 5594 ft | 271 kts | 104° |
| 2026-04-28 07:13 | -5.85102 | 22.47530 | 6440 ft | 273 kts | 114° |
| 2026-04-28 07:13 | -5.85929 | 22.49252 | 7259 ft | 274 kts | 115° |
| 2026-04-28 07:13 | -5.86769 | 22.50985 | 8083 ft | 276 kts | 115° |
| 2026-04-28 07:14 | -5.87614 | 22.52729 | 8871 ft | 279 kts | 115° |
| 2026-04-28 07:14 | -5.88338 | 22.54547 | 9634 ft | 282 kts | 108° |
| 2026-04-28 07:14 | -5.88902 | 22.56449 | 10315 ft | 289 kts | 105° |
| 2026-04-28 07:14 | -5.89427 | 22.58479 | 10522 ft | 312 kts | 104° |
| 2026-04-28 07:15 | -5.89976 | 22.60676 | 10681 ft | 335 kts | 104° |
| 2026-04-28 07:15 | -5.90564 | 22.62986 | 10926 ft | 352 kts | 104° |
| 2026-04-28 07:15 | -5.91188 | 22.65359 | 11487 ft | 358 kts | 105° |
| 2026-04-28 07:15 | -5.91844 | 22.67784 | 12097 ft | 362 kts | 105° |
| 2026-04-28 07:16 | -5.92532 | 22.70270 | 12716 ft | 366 kts | 105° |
| 2026-04-28 07:16 | -5.93215 | 22.72707 | 12955 ft | 368 kts | 105° |
| 2026-04-28 07:16 | -5.93919 | 22.75209 | 13027 ft | 381 kts | 105° |
| 2026-04-28 07:16 | -5.94657 | 22.77837 | 13032 ft | 400 kts | 105° |
| 2026-04-28 07:17 | -5.95417 | 22.80552 | 13028 ft | 406 kts | 105° |
| 2026-04-28 07:17 | -5.96177 | 22.83278 | 13027 ft | 407 kts | 105° |
| 2026-04-28 07:17 | -5.96940 | 22.86027 | 13029 ft | 408 kts | 105° |
| 2026-04-28 07:17 | -5.97698 | 22.88769 | 13031 ft | 408 kts | 105° |
| 2026-04-28 07:18 | -5.98458 | 22.91515 | 13032 ft | 408 kts | 105° |
| 2026-04-28 07:18 | -5.99201 | 22.94191 | 13034 ft | 408 kts | 105° |
| 2026-04-28 07:18 | -5.99963 | 22.96938 | 13032 ft | 408 kts | 105° |
| 2026-04-28 07:18 | -6.00693 | 22.99688 | 13031 ft | 408 kts | 103° |
| 2026-04-28 07:19 | -6.01316 | 23.02471 | 13033 ft | 408 kts | 101° |
| 2026-04-28 07:19 | -6.01858 | 23.05269 | 13034 ft | 408 kts | 100° |
| 2026-04-28 07:19 | -6.02360 | 23.08060 | 13034 ft | 408 kts | 100° |
| 2026-04-28 07:19 | -6.02859 | 23.10865 | 13034 ft | 409 kts | 100° |
| 2026-04-28 07:20 | -6.03366 | 23.13651 | 12693 ft | 403 kts | 100° |
| 2026-04-28 07:20 | -6.03889 | 23.16420 | 11972 ft | 401 kts | 101° |
| 2026-04-28 07:20 | -6.04424 | 23.19153 | 11326 ft | 397 kts | 101° |
| 2026-04-28 07:20 | -6.04958 | 23.21839 | 10993 ft | 384 kts | 101° |
| 2026-04-28 07:21 | -6.05469 | 23.24411 | 10876 ft | 366 kts | 101° |
| 2026-04-28 07:21 | -6.05947 | 23.26830 | 10763 ft | 350 kts | 101° |
| 2026-04-28 07:21 | -6.06415 | 23.29202 | 10643 ft | 335 kts | 101° |
| 2026-04-28 07:22 | -6.07276 | 23.33585 | 10418 ft | 309 kts | 101° |
| 2026-04-28 07:22 | -6.07682 | 23.35655 | 10302 ft | 298 kts | 101° |
| 2026-04-28 07:22 | -6.08078 | 23.37669 | 10097 ft | 291 kts | 101° |
| 2026-04-28 07:22 | -6.08468 | 23.39646 | 9906 ft | 288 kts | 101° |
| 2026-04-28 07:23 | -6.08860 | 23.41643 | 9361 ft | 292 kts | 101° |
| 2026-04-28 07:23 | -6.09247 | 23.43623 | 9033 ft | 286 kts | 101° |
| 2026-04-28 07:23 | -6.09626 | 23.45568 | 8385 ft | 282 kts | 101° |
| 2026-04-28 07:23 | -6.10004 | 23.47499 | 7694 ft | 282 kts | 101° |
| 2026-04-28 07:24 | -6.10379 | 23.49420 | 7126 ft | 276 kts | 101° |
| 2026-04-28 07:24 | -6.10738 | 23.51254 | 6918 ft | 259 kts | 101° |
| 2026-04-28 07:24 | -6.11076 | 23.52982 | 6783 ft | 243 kts | 101° |
| 2026-04-28 07:24 | -6.11391 | 23.54586 | 6677 ft | 225 kts | 101° |
| 2026-04-28 07:25 | -6.11751 | 23.56039 | 6608 ft | 204 kts | 112° |
| 2026-04-28 07:25 | -6.12472 | 23.57189 | 6417 ft | 189 kts | 131° |
| 2026-04-28 07:25 | -6.13396 | 23.58074 | 6166 ft | 176 kts | 135° |
| 2026-04-28 07:25 | -6.14247 | 23.58884 | 5905 ft | 162 kts | 135° |
| 2026-04-28 07:26 | -6.15033 | 23.59634 | 5698 ft | 153 kts | 134° |
| 2026-04-28 07:26 | -6.15791 | 23.60357 | 5525 ft | 151 kts | 134° |
| 2026-04-28 07:26 | -6.16553 | 23.61085 | 5319 ft | 151 kts | 135° |
| 2026-04-28 07:26 | -6.17312 | 23.61809 | 5137 ft | 151 kts | 134° |
| 2026-04-28 07:27 | -6.18077 | 23.62540 | 4937 ft | 151 kts | 135° |
| 2026-04-28 07:27 | -6.18837 | 23.63268 | 4725 ft | 151 kts | 134° |
| 2026-04-28 07:27 | -6.19598 | 23.64000 | 4515 ft | 151 kts | 135° |
| 2026-04-28 07:27 | -6.20452 | 23.64596 | 4396 ft | 152 kts | 158° |
| 2026-04-28 07:28 | -6.21498 | 23.64718 | 4298 ft | 154 kts | 188° |
| 2026-04-28 07:28 | -6.22480 | 23.64305 | 4218 ft | 155 kts | 217° |
| 2026-04-28 07:28 | -6.23137 | 23.63457 | 4132 ft | 156 kts | 248° |
| 2026-04-28 07:28 | -6.23298 | 23.62394 | 4038 ft | 155 kts | 277° |
| 2026-04-28 07:29 | -6.22923 | 23.61394 | 3953 ft | 154 kts | 307° |
| 2026-04-28 07:29 | -6.22121 | 23.60708 | 3858 ft | 152 kts | 336° |
| 2026-04-28 07:29 | -6.21118 | 23.60370 | 3785 ft | 152 kts | 344° |
| 2026-04-28 07:29 | -6.20111 | 23.60052 | 3695 ft | 152 kts | 343° |
| 2026-04-28 07:30 | -6.19101 | 23.59732 | 3601 ft | 152 kts | 343° |
| 2026-04-28 07:30 | -6.18107 | 23.59376 | 3493 ft | 153 kts | 338° |
| 2026-04-28 07:30 | -6.17134 | 23.58951 | 3271 ft | 152 kts | 336° |
| 2026-04-28 07:30 | -6.16172 | 23.58514 | 3052 ft | 152 kts | 334° |
| 2026-04-28 07:31 | -6.15221 | 23.58045 | 2783 ft | 153 kts | 334° |
| 2026-04-28 07:31 | -6.14239 | 23.57628 | 2545 ft | 154 kts | 339° |
| 2026-04-28 07:31 | -6.13222 | 23.57277 | 2324 ft | 156 kts | 341° |
| 2026-04-28 07:31 | -6.12272 | 23.56951 | 2239 ft | 112 kts | 341° |
| 2026-04-28 07:32 | -6.11773 | 23.56786 | 2243 ft | 60 kts | 341° |
| 2026-04-28 07:32 | -6.11399 | 23.56657 | 2242 ft | 54 kts | 341° |
| 2026-04-28 07:32 | -6.11091 | 23.56550 | 2241 ft | 23 kts | 320° |
| 2026-04-28 07:32 | -6.11034 | 23.56519 | 2241 ft | 3 kts | 94° |
| 2026-04-28 07:33 | -6.11045 | 23.56534 | 2241 ft | 4 kts | 137° |
| 2026-04-28 07:33 | -6.11115 | 23.56565 | 2240 ft | 17 kts | 161° |
| 2026-04-28 07:33 | -6.11247 | 23.56610 | 2241 ft | 23 kts | 161° |
| 2026-04-28 07:33 | -6.11412 | 23.56665 | 2242 ft | 27 kts | 162° |
| 2026-04-28 07:34 | -6.11605 | 23.56730 | 2243 ft | 31 kts | 161° |
| 2026-04-28 07:34 | -6.11806 | 23.56799 | 2243 ft | 34 kts | 161° |
| 2026-04-28 07:34 | -6.12053 | 23.56880 | 2241 ft | 38 kts | 162° |
| 2026-04-28 07:34 | -6.12306 | 23.56963 | 2239 ft | 38 kts | 161° |
| 2026-04-28 07:35 | -6.12538 | 23.57044 | 2239 ft | 23 kts | 161° |
| 2026-04-28 07:35 | -6.12573 | 23.57096 | 2239 ft | 4 kts | 72° |
| 2026-04-28 07:35 | -6.12567 | 23.57113 | 2239 ft | 1 kts | 73° |
| 2026-04-28 07:35 | -6.12554 | 23.57130 | 2240 ft | 7 kts | 34° |
| 2026-04-28 07:36 | -6.12502 | 23.57166 | 2240 ft | 10 kts | 84° |
| 2026-04-28 07:36 | -6.12531 | 23.57192 | 2240 ft | 5 kts | 210° |
| 2026-04-28 07:36 | -6.12540 | 23.57180 | 2240 ft | 0 kts | 232° |